Date,TemperatureHighF,TemperatureAvgF,TemperatureLowF,DewpointHighF,DewpointAvgF,DewpointLowF,HumidityHigh,HumidityAvg,HumidityLow,PressureMaxIn,PressureMinIn,WindSpeedMaxMPH,WindSpeedAvgMPH,GustSpeedMaxMPH,PrecipitationSumIn
2013-6-1,91.6,76.4,60.8,69.7,63.9,57.0,100,70,33,29.54,29.39,20,2,20,0.00
2013-6-2,85.0,70.0,63.4,84.0,67.2,63.0,100,92,59,29.42,29.22,26,2,28,1.02
2013-6-3,77.0,66.6,51.9,70.5,57.2,47.5,100,76,40,29.44,29.34,19,4,21,0.01
2013-6-4,66.3,56.1,44.0,50.0,43.0,39.0,94,64,42,29.69,29.43,25,4,27,0.00
2013-6-5,72.3,58.1,43.2,54.0,42.2,35.0,100,62,27,29.80,29.66,14,2,16,0.00
2013-6-6,73.6,61.9,50.7,56.5,47.8,39.0,97,63,34,29.78,29.65,16,2,16,0.05
2013-6-7,56.8,52.4,50.6,56.5,51.6,49.0,100,97,93,29.68,29.47,14,2,14,0.76
2013-6-8,69.7,60.0,51.5,63.5,56.2,52.0,100,89,66,29.61,29.33,13,2,15,0.30
2013-6-9,76.9,64.8,54.8,61.5,54.7,49.0,100,73,39,29.78,29.61,18,2,18,0.00
2013-6-10,73.4,59.3,48.6,63.0,55.1,49.0,100,88,52,29.82,29.60,9,1,10,0.20
2013-6-11,58.9,56.0,53.7,59.0,55.8,53.0,100,99,96,29.60,29.18,10,1,16,1.04
2013-6-12,67.0,59.1,52.0,56.0,53.8,50.5,100,84,59,29.43,29.18,26,5,27,0.02
2013-6-13,63.4,55.6,50.0,59.0,54.0,50.0,100,95,77,29.43,29.30,10,2,10,0.12
2013-6-14,77.1,63.0,52.5,66.3,53.0,43.0,100,75,30,29.41,29.28,20,3,20,0.01
2013-6-15,75.9,62.6,47.5,56.5,46.8,38.0,100,63,29,29.53,29.41,21,3,22,0.00
2013-6-16,71.8,58.7,46.0,61.0,53.8,45.0,100,86,53,29.53,29.29,12,2,16,0.04
2013-6-17,78.8,63.9,52.1,71.3,58.8,52.0,100,86,46,29.51,29.36,18,2,18,0.03
2013-6-18,61.6,58.1,52.1,61.5,56.8,52.0,100,96,85,29.58,29.49,10,2,11,0.12
2013-6-19,72.4,59.0,47.0,62.5,47.8,40.0,100,72,33,29.77,29.56,14,2,17,0.00
2013-6-20,79.8,60.5,42.4,54.0,46.3,38.0,100,66,24,29.87,29.75,12,2,12,0.00
2013-6-21,84.0,65.8,47.2,59.0,51.7,46.0,100,67,30,29.84,29.76,14,2,16,0.00
2013-6-22,82.9,67.6,54.0,66.3,60.2,53.0,99,79,48,29.82,29.66,12,2,19,0.04
2013-6-23,85.5,70.4,62.9,76.5,68.0,63.0,100,93,66,29.72,29.52,17,2,18,0.52
2013-6-24,90.8,72.8,63.5,80.8,68.0,60.5,100,88,48,29.59,29.48,25,2,25,0.08
2013-6-25,88.5,73.0,64.3,77.0,68.1,64.5,100,88,47,29.54,29.33,18,2,21,0.57
2013-6-26,73.0,68.1,64.4,73.0,68.0,64.5,100,100,93,29.43,29.34,7,1,8,0.46
2013-6-27,82.5,70.6,63.9,74.7,67.8,64.0,100,92,69,29.43,29.32,10,2,11,0.00
2013-6-28,79.9,66.8,59.3,76.0,64.9,59.0,100,94,77,29.34,29.04,16,2,16,1.11
2013-6-29,82.0,72.0,65.3,74.0,66.9,61.5,100,85,60,29.27,29.09,20,2,22,0.14
2013-6-30,85.5,73.2,63.1,71.7,66.3,63.0,100,81,55,29.41,29.27,11,2,12,0.00